PWSweather.com
Personal Weather Stations
Station Observations
KTXNEWBR92
New Braunfels, TX

New Braunfels, TX

Lat: 29.722, Lon: -98.17

Elevation: 850

Station Type:

High Low Average
Temperature 68.5°F20.3°C 39.2°F4.0°C 52.7°F11.5°C
Dew Point 48.9°F9.4°C 23.2°F-4.9°C 39.4°F4.1°C
Winds 8.9 mph 14.3 kmh Calm Calm 1.0 mph E1.6 kmh E
Wind Gusts 12.3 mph19.8 kmh -- 1.0 mph1.6 kmh
Humidity 94% 18% 68%
Pressure 29.97 in1014.9 mb 29.72 in1006.4 mb -
Precipitation 0.47 in11.9 mm - -
Hour Temp Dew Point Humidity Winds Wind Gusts Pressure Precip Precip Rate Daily Precip Total
12:04 AM 52.7°F11.5°C 45.7°F7.6°C 77% Calm Calm -- 29.91 in1012.9 mb 0.00 in0.0 mm 0.00 in0.0 mm 0.00 in0.0 mm
12:09 AM 52.7°F11.5°C 45.7°F7.6°C 77% 0.2 mph ENE0.3 kmh ENE 2.5 mph4.0 kmh 29.91 in1012.9 mb 0.00 in0.0 mm 0.00 in0.0 mm 0.00 in0.0 mm
12:14 AM 52.7°F11.5°C 45.7°F7.6°C 77% Calm Calm -- 29.91 in1012.9 mb 0.00 in0.0 mm 0.00 in0.0 mm 0.00 in0.0 mm
12:19 AM 52.5°F11.4°C 45.9°F7.7°C 78% Calm Calm -- 29.92 in1013.2 mb 0.00 in0.0 mm 0.00 in0.0 mm 0.00 in0.0 mm
12:24 AM 52.5°F11.4°C 45.9°F7.7°C 78% Calm Calm -- 29.92 in1013.2 mb 0.00 in0.0 mm 0.00 in0.0 mm 0.00 in0.0 mm
12:29 AM 52.5°F11.4°C 45.9°F7.7°C 78% 0.9 mph NE1.4 kmh NE 2.5 mph4.0 kmh 29.93 in1013.5 mb 0.00 in0.0 mm 0.00 in0.0 mm 0.00 in0.0 mm
12:34 AM 52.5°F11.4°C 45.9°F7.7°C 78% 0.2 mph E0.3 kmh E 2.5 mph4.0 kmh 29.93 in1013.5 mb 0.00 in0.0 mm 0.00 in0.0 mm 0.00 in0.0 mm
12:39 AM 52.5°F11.4°C 45.9°F7.7°C 78% Calm Calm -- 29.93 in1013.5 mb 0.00 in0.0 mm 0.00 in0.0 mm 0.00 in0.0 mm
12:44 AM 52.5°F11.4°C 45.9°F7.7°C 78% Calm Calm -- 29.93 in1013.5 mb 0.00 in0.0 mm 0.00 in0.0 mm 0.00 in0.0 mm
12:49 AM 52.5°F11.4°C 45.9°F7.7°C 78% Calm Calm -- 29.93 in1013.5 mb 0.02 in0.5 mm 0.24 in6.1 mm 0.02 in0.5 mm
12:54 AM 52.5°F11.4°C 46.2°F7.9°C 79% 0.9 mph E1.4 kmh E 2.5 mph4.0 kmh 29.93 in1013.5 mb 0.04 in1.0 mm 0.24 in6.1 mm 0.04 in1.0 mm
01:04 AM 52.5°F11.4°C 47.3°F8.5°C 82% Calm Calm -- 29.92 in1013.2 mb 0.07 in1.8 mm 0.04 in1.0 mm 0.07 in1.8 mm
01:09 AM 52.3°F11.3°C 47.3°F8.5°C 83% Calm Calm -- 29.93 in1013.5 mb 0.00 in0.0 mm 0.00 in0.0 mm 0.07 in1.8 mm
01:14 AM 52.2°F11.2°C 47.8°F8.8°C 85% Calm Calm -- 29.92 in1013.2 mb 0.00 in0.0 mm 0.00 in0.0 mm 0.07 in1.8 mm
01:19 AM 52.0°F11.1°C 47.7°F8.7°C 85% Calm Calm -- 29.92 in1013.2 mb 0.00 in0.0 mm 0.00 in0.0 mm 0.07 in1.8 mm
01:24 AM 51.8°F11.0°C 47.8°F8.8°C 86% Calm Calm -- 29.92 in1013.2 mb 0.00 in0.0 mm 0.00 in0.0 mm 0.07 in1.8 mm
01:29 AM 51.6°F10.9°C 48.2°F9.0°C 88% Calm Calm -- 29.92 in1013.2 mb 0.00 in0.0 mm 0.00 in0.0 mm 0.07 in1.8 mm
01:34 AM 51.4°F10.8°C 48.4°F9.1°C 89% Calm Calm -- 29.91 in1012.9 mb 0.00 in0.0 mm 0.00 in0.0 mm 0.07 in1.8 mm
01:39 AM 51.3°F10.7°C 48.4°F9.1°C 90% Calm Calm -- 29.92 in1013.2 mb 0.00 in0.0 mm 0.00 in0.0 mm 0.07 in1.8 mm
01:44 AM 51.1°F10.6°C 48.6°F9.2°C 91% Calm Calm -- 29.91 in1012.9 mb 0.00 in0.0 mm 0.00 in0.0 mm 0.07 in1.8 mm
01:49 AM 51.1°F10.6°C 48.9°F9.4°C 92% Calm Calm -- 29.92 in1013.2 mb 0.00 in0.0 mm 0.00 in0.0 mm 0.07 in1.8 mm
01:54 AM 50.9°F10.5°C 48.7°F9.3°C 92% Calm Calm -- 29.92 in1013.2 mb 0.01 in0.3 mm 0.12 in3.0 mm 0.01 in0.3 mm
01:59 AM 50.9°F10.5°C 48.7°F9.3°C 92% Calm Calm -- 29.92 in1013.2 mb 0.01 in0.3 mm 0.00 in0.0 mm 0.01 in0.3 mm
02:04 AM 50.9°F10.5°C 48.7°F9.3°C 92% Calm Calm -- 29.92 in1013.2 mb 0.00 in0.0 mm 0.00 in0.0 mm 0.01 in0.3 mm
02:09 AM 50.9°F10.5°C 48.7°F9.3°C 92% Calm Calm -- 29.92 in1013.2 mb 0.00 in0.0 mm 0.00 in0.0 mm 0.01 in0.3 mm
02:14 AM 50.9°F10.5°C 48.7°F9.3°C 92% Calm Calm -- 29.92 in1013.2 mb 0.00 in0.0 mm 0.00 in0.0 mm 0.01 in0.3 mm
02:19 AM 50.9°F10.5°C 48.7°F9.3°C 92% Calm Calm -- 29.92 in1013.2 mb 0.00 in0.0 mm 0.00 in0.0 mm 0.01 in0.3 mm
02:24 AM 50.9°F10.5°C 48.7°F9.3°C 92% Calm Calm -- 29.92 in1013.2 mb 0.00 in0.0 mm 0.00 in0.0 mm 0.01 in0.3 mm
02:29 AM 50.9°F10.5°C 48.9°F9.4°C 93% 1.1 mph NE1.8 kmh NE 2.5 mph4.0 kmh 29.92 in1013.2 mb 0.00 in0.0 mm 0.00 in0.0 mm 0.01 in0.3 mm
02:34 AM 50.9°F10.5°C 48.9°F9.4°C 93% 0.2 mph E0.3 kmh E 2.5 mph4.0 kmh 29.91 in1012.9 mb 0.00 in0.0 mm 0.00 in0.0 mm 0.01 in0.3 mm
02:39 AM 50.7°F10.4°C 48.7°F9.3°C 93% Calm Calm -- 29.91 in1012.9 mb 0.00 in0.0 mm 0.00 in0.0 mm 0.01 in0.3 mm
02:44 AM 50.7°F10.4°C 48.7°F9.3°C 93% Calm Calm -- 29.91 in1012.9 mb 0.00 in0.0 mm 0.00 in0.0 mm 0.01 in0.3 mm
02:49 AM 50.7°F10.4°C 48.7°F9.3°C 93% Calm Calm -- 29.91 in1012.9 mb 0.00 in0.0 mm 0.00 in0.0 mm 0.01 in0.3 mm
02:54 AM 50.7°F10.4°C 48.7°F9.3°C 93% Calm Calm -- 29.91 in1012.9 mb 0.00 in0.0 mm 0.00 in0.0 mm 0.01 in0.3 mm
02:59 AM 50.7°F10.4°C 48.7°F9.3°C 93% Calm Calm -- 29.91 in1012.9 mb 0.00 in0.0 mm 0.00 in0.0 mm 0.01 in0.3 mm
03:04 AM 50.5°F10.3°C 48.6°F9.2°C 93% Calm Calm -- 29.91 in1012.9 mb 0.00 in0.0 mm 0.00 in0.0 mm 0.01 in0.3 mm
03:09 AM 50.5°F10.3°C 48.6°F9.2°C 93% Calm Calm -- 29.91 in1012.9 mb 0.00 in0.0 mm 0.00 in0.0 mm 0.01 in0.3 mm
03:14 AM 50.5°F10.3°C 48.6°F9.2°C 93% Calm Calm -- 29.91 in1012.9 mb 0.00 in0.0 mm 0.00 in0.0 mm 0.01 in0.3 mm
03:19 AM 50.4°F10.2°C 48.4°F9.1°C 93% Calm Calm -- 29.90 in1012.5 mb 0.00 in0.0 mm 0.00 in0.0 mm 0.01 in0.3 mm
03:24 AM 50.4°F10.2°C 48.4°F9.1°C 93% Calm Calm -- 29.91 in1012.9 mb 0.00 in0.0 mm 0.00 in0.0 mm 0.01 in0.3 mm
03:29 AM 50.4°F10.2°C 48.4°F9.1°C 93% Calm Calm -- 29.91 in1012.9 mb 0.00 in0.0 mm 0.00 in0.0 mm 0.01 in0.3 mm
03:34 AM 50.5°F10.3°C 48.6°F9.2°C 93% Calm Calm -- 29.91 in1012.9 mb 0.00 in0.0 mm 0.00 in0.0 mm 0.01 in0.3 mm
03:39 AM 50.5°F10.3°C 48.6°F9.2°C 93% Calm Calm -- 29.91 in1012.9 mb 0.00 in0.0 mm 0.00 in0.0 mm 0.01 in0.3 mm
03:44 AM 50.5°F10.3°C 48.6°F9.2°C 93% Calm Calm -- 29.92 in1013.2 mb 0.00 in0.0 mm 0.00 in0.0 mm 0.01 in0.3 mm
03:49 AM 50.5°F10.3°C 48.6°F9.2°C 93% 0.2 mph E0.3 kmh E 2.5 mph4.0 kmh 29.92 in1013.2 mb 0.00 in0.0 mm 0.00 in0.0 mm 0.01 in0.3 mm
03:54 AM 50.5°F10.3°C 48.6°F9.2°C 93% Calm Calm -- 29.92 in1013.2 mb 0.00 in0.0 mm 0.00 in0.0 mm 0.01 in0.3 mm
03:59 AM 50.5°F10.3°C 48.6°F9.2°C 93% 1.8 mph NE2.9 kmh NE 2.5 mph4.0 kmh 29.93 in1013.5 mb 0.00 in0.0 mm 0.00 in0.0 mm 0.01 in0.3 mm
04:04 AM 50.5°F10.3°C 48.6°F9.2°C 93% 1.3 mph ENE2.1 kmh ENE 4.9 mph7.9 kmh 29.94 in1013.9 mb 0.00 in0.0 mm 0.00 in0.0 mm 0.01 in0.3 mm
04:09 AM 50.5°F10.3°C 48.6°F9.2°C 93% 1.8 mph ENE2.9 kmh ENE 2.5 mph4.0 kmh 29.94 in1013.9 mb 0.00 in0.0 mm 0.00 in0.0 mm 0.01 in0.3 mm
04:14 AM 50.5°F10.3°C 48.6°F9.2°C 93% Calm Calm -- 29.94 in1013.9 mb 0.00 in0.0 mm 0.00 in0.0 mm 0.01 in0.3 mm
04:19 AM 50.5°F10.3°C 48.6°F9.2°C 93% 2.9 mph NE4.7 kmh NE 4.9 mph7.9 kmh 29.95 in1014.2 mb 0.01 in0.3 mm 0.12 in3.0 mm 0.02 in0.5 mm
04:24 AM 50.5°F10.3°C 48.6°F9.2°C 93% 1.3 mph SW2.1 kmh SW 2.5 mph4.0 kmh 29.96 in1014.6 mb 0.10 in2.5 mm 1.08 in27.4 mm 0.11 in2.8 mm
04:29 AM 50.2°F10.1°C 48.2°F9.0°C 93% 4.9 mph NW7.9 kmh NW 9.8 mph15.8 kmh 29.96 in1014.6 mb 0.12 in3.0 mm 0.24 in6.1 mm 0.13 in3.3 mm
04:34 AM 50.0°F10.0°C 48.0°F8.9°C 93% 1.1 mph NNE1.8 kmh NNE 2.5 mph4.0 kmh 29.96 in1014.6 mb 0.14 in3.6 mm 0.24 in6.1 mm 0.15 in3.8 mm
04:39 AM 49.6°F9.8°C 47.7°F8.7°C 93% 3.4 mph NNE5.5 kmh NNE 4.9 mph7.9 kmh 29.96 in1014.6 mb 0.16 in4.1 mm 0.24 in6.1 mm 0.17 in4.3 mm
04:44 AM 49.3°F9.6°C 47.3°F8.5°C 93% 0.2 mph E0.3 kmh E 2.5 mph4.0 kmh 29.96 in1014.6 mb 0.17 in4.3 mm 0.12 in3.0 mm 0.18 in4.6 mm
04:49 AM 49.1°F9.5°C 46.9°F8.3°C 92% 4.0 mph NW6.4 kmh NW 4.9 mph7.9 kmh 29.96 in1014.6 mb 0.18 in4.6 mm 0.12 in3.0 mm 0.19 in4.8 mm
04:54 AM 48.7°F9.3°C 46.6°F8.1°C 92% Calm Calm -- 29.96 in1014.6 mb 0.20 in5.1 mm 0.24 in6.1 mm 0.21 in5.3 mm
04:59 AM 48.6°F9.2°C 46.4°F8.0°C 92% Calm Calm -- 29.96 in1014.6 mb 0.23 in5.8 mm 0.36 in9.1 mm 0.24 in6.1 mm
05:04 AM 48.4°F9.1°C 46.2°F7.9°C 92% 0.2 mph ENE0.3 kmh ENE 2.5 mph4.0 kmh 29.96 in1014.6 mb 0.02 in0.5 mm 0.00 in0.0 mm 0.26 in6.6 mm
05:09 AM 48.4°F9.1°C 46.4°F8.0°C 93% Calm Calm -- 29.95 in1014.2 mb 0.06 in1.5 mm 0.48 in12.2 mm 0.30 in7.6 mm
05:14 AM 48.2°F9.0°C 46.2°F7.9°C 93% Calm Calm -- 29.95 in1014.2 mb 0.09 in2.3 mm 0.36 in9.1 mm 0.33 in8.4 mm
05:19 AM 48.2°F9.0°C 46.2°F7.9°C 93% Calm Calm -- 29.95 in1014.2 mb 0.13 in3.3 mm 0.48 in12.2 mm 0.37 in9.4 mm
05:24 AM 48.0°F8.9°C 46.0°F7.8°C 93% Calm Calm -- 29.94 in1013.9 mb 0.15 in3.8 mm 0.24 in6.1 mm 0.39 in9.9 mm
05:29 AM 48.0°F8.9°C 46.0°F7.8°C 93% Calm Calm -- 29.94 in1013.9 mb 0.19 in4.8 mm 0.48 in12.2 mm 0.43 in10.9 mm
05:34 AM 48.0°F8.9°C 46.0°F7.8°C 93% Calm Calm -- 29.93 in1013.5 mb 0.21 in5.3 mm 0.24 in6.1 mm 0.45 in11.4 mm
05:39 AM 48.0°F8.9°C 46.0°F7.8°C 93% 2.5 mph S4.0 kmh S 4.9 mph7.9 kmh 29.91 in1012.9 mb 0.23 in5.8 mm 0.24 in6.1 mm 0.47 in11.9 mm
05:44 AM 47.8°F8.8°C 45.9°F7.7°C 93% 0.2 mph ESE0.3 kmh ESE 2.5 mph4.0 kmh 29.91 in1012.9 mb 0.23 in5.8 mm 0.00 in0.0 mm 0.47 in11.9 mm
05:49 AM 47.8°F8.8°C 45.9°F7.7°C 93% Calm Calm -- 29.91 in1012.9 mb 0.23 in5.8 mm 0.00 in0.0 mm 0.47 in11.9 mm
05:54 AM 47.7°F8.7°C 45.7°F7.6°C 93% Calm Calm -- 29.91 in1012.9 mb 0.23 in5.8 mm 0.00 in0.0 mm 0.47 in11.9 mm
05:59 AM 47.5°F8.6°C 45.5°F7.5°C 93% Calm Calm -- 29.91 in1012.9 mb 0.23 in5.8 mm 0.00 in0.0 mm 0.47 in11.9 mm
06:04 AM 47.5°F8.6°C 45.5°F7.5°C 93% Calm Calm -- 29.90 in1012.5 mb 0.00 in0.0 mm 0.00 in0.0 mm 0.47 in11.9 mm
06:09 AM 47.3°F8.5°C 45.3°F7.4°C 93% Calm Calm -- 29.90 in1012.5 mb 0.00 in0.0 mm 0.00 in0.0 mm 0.47 in11.9 mm
06:14 AM 47.1°F8.4°C 45.1°F7.3°C 93% Calm Calm -- 29.90 in1012.5 mb 0.00 in0.0 mm 0.00 in0.0 mm 0.47 in11.9 mm
06:19 AM 46.9°F8.3°C 45.0°F7.2°C 93% Calm Calm -- 29.91 in1012.9 mb 0.00 in0.0 mm 0.00 in0.0 mm 0.47 in11.9 mm
06:24 AM 46.9°F8.3°C 45.0°F7.2°C 93% Calm Calm -- 29.91 in1012.9 mb 0.00 in0.0 mm 0.00 in0.0 mm 0.47 in11.9 mm
06:29 AM 46.8°F8.2°C 44.8°F7.1°C 93% Calm Calm -- 29.91 in1012.9 mb 0.00 in0.0 mm 0.00 in0.0 mm 0.47 in11.9 mm
06:39 AM 46.6°F8.1°C 44.6°F7.0°C 93% Calm Calm -- 29.91 in1012.9 mb 0.00 in0.0 mm 0.00 in0.0 mm 0.47 in11.9 mm
06:44 AM 46.6°F8.1°C 44.6°F7.0°C 93% Calm Calm -- 29.92 in1013.2 mb 0.00 in0.0 mm 0.00 in0.0 mm 0.47 in11.9 mm
06:49 AM 46.4°F8.0°C 44.4°F6.9°C 93% 1.3 mph ENE2.1 kmh ENE 2.5 mph4.0 kmh 29.92 in1013.2 mb 0.00 in0.0 mm 0.00 in0.0 mm 0.47 in11.9 mm
06:54 AM 46.2°F7.9°C 44.2°F6.8°C 93% 0.4 mph NE0.6 kmh NE 2.5 mph4.0 kmh 29.93 in1013.5 mb 0.00 in0.0 mm 0.00 in0.0 mm 0.47 in11.9 mm
06:59 AM 46.0°F7.8°C 44.1°F6.7°C 93% 2.0 mph NNE3.2 kmh NNE 2.5 mph4.0 kmh 29.93 in1013.5 mb 0.00 in0.0 mm 0.00 in0.0 mm 0.47 in11.9 mm
07:04 AM 45.9°F7.7°C 43.9°F6.6°C 93% 1.3 mph NE2.1 kmh NE 2.5 mph4.0 kmh 29.93 in1013.5 mb 0.00 in0.0 mm 0.00 in0.0 mm 0.47 in11.9 mm
07:09 AM 45.9°F7.7°C 43.9°F6.6°C 93% 0.4 mph SSW0.6 kmh SSW 2.5 mph4.0 kmh 29.93 in1013.5 mb 0.00 in0.0 mm 0.00 in0.0 mm 0.47 in11.9 mm
07:14 AM 45.7°F7.6°C 43.9°F6.6°C 93% Calm Calm -- 29.93 in1013.5 mb 0.00 in0.0 mm 0.00 in0.0 mm 0.47 in11.9 mm
07:19 AM 45.5°F7.5°C 43.7°F6.5°C 93% Calm Calm -- 29.93 in1013.5 mb 0.00 in0.0 mm 0.00 in0.0 mm 0.47 in11.9 mm
07:24 AM 45.5°F7.5°C 43.7°F6.5°C 93% Calm Calm -- 29.93 in1013.5 mb 0.00 in0.0 mm 0.00 in0.0 mm 0.47 in11.9 mm
07:29 AM 45.3°F7.4°C 43.5°F6.4°C 93% Calm Calm -- 29.93 in1013.5 mb 0.00 in0.0 mm 0.00 in0.0 mm 0.47 in11.9 mm
07:34 AM 45.1°F7.3°C 43.3°F6.3°C 93% Calm Calm -- 29.94 in1013.9 mb 0.00 in0.0 mm 0.00 in0.0 mm 0.47 in11.9 mm
07:39 AM 45.0°F7.2°C 43.2°F6.2°C 93% Calm Calm -- 29.94 in1013.9 mb 0.00 in0.0 mm 0.00 in0.0 mm 0.47 in11.9 mm
07:44 AM 44.8°F7.1°C 43.0°F6.1°C 93% Calm Calm -- 29.95 in1014.2 mb 0.00 in0.0 mm 0.00 in0.0 mm 0.47 in11.9 mm
07:49 AM 44.6°F7.0°C 42.8°F6.0°C 93% Calm Calm -- 29.95 in1014.2 mb 0.00 in0.0 mm 0.00 in0.0 mm 0.47 in11.9 mm
07:54 AM 44.4°F6.9°C 42.6°F5.9°C 93% Calm Calm -- 29.95 in1014.2 mb 0.00 in0.0 mm 0.00 in0.0 mm 0.47 in11.9 mm
07:59 AM 44.2°F6.8°C 42.4°F5.8°C 93% Calm Calm -- 29.95 in1014.2 mb 0.00 in0.0 mm 0.00 in0.0 mm 0.47 in11.9 mm
08:04 AM 44.1°F6.7°C 42.3°F5.7°C 93% Calm Calm -- 29.94 in1013.9 mb 0.00 in0.0 mm 0.00 in0.0 mm 0.47 in11.9 mm
08:09 AM 44.1°F6.7°C 42.3°F5.7°C 93% Calm Calm -- 29.94 in1013.9 mb 0.00 in0.0 mm 0.00 in0.0 mm 0.47 in11.9 mm
08:14 AM 43.9°F6.6°C 42.3°F5.7°C 94% Calm Calm -- 29.95 in1014.2 mb 0.00 in0.0 mm 0.00 in0.0 mm 0.47 in11.9 mm
08:19 AM 43.9°F6.6°C 42.3°F5.7°C 94% Calm Calm -- 29.95 in1014.2 mb 0.00 in0.0 mm 0.00 in0.0 mm 0.47 in11.9 mm
08:24 AM 44.1°F6.7°C 42.4°F5.8°C 94% Calm Calm -- 29.94 in1013.9 mb 0.00 in0.0 mm 0.00 in0.0 mm 0.47 in11.9 mm
08:29 AM 44.2°F6.8°C 42.6°F5.9°C 94% Calm Calm -- 29.94 in1013.9 mb 0.00 in0.0 mm 0.00 in0.0 mm 0.47 in11.9 mm
08:34 AM 44.4°F6.9°C 42.8°F6.0°C 94% 0.9 mph SSE1.4 kmh SSE 2.5 mph4.0 kmh 29.95 in1014.2 mb 0.00 in0.0 mm 0.00 in0.0 mm 0.47 in11.9 mm
08:39 AM 44.6°F7.0°C 43.0°F6.1°C 94% Calm Calm -- 29.94 in1013.9 mb 0.00 in0.0 mm 0.00 in0.0 mm 0.47 in11.9 mm
08:44 AM 44.8°F7.1°C 43.2°F6.2°C 94% 0.9 mph S1.4 kmh S 2.5 mph4.0 kmh 29.95 in1014.2 mb 0.00 in0.0 mm 0.00 in0.0 mm 0.47 in11.9 mm
08:54 AM 45.3°F7.4°C 43.7°F6.5°C 94% 2.0 mph S3.2 kmh S 2.5 mph4.0 kmh 29.95 in1014.2 mb 0.00 in0.0 mm 0.00 in0.0 mm 0.47 in11.9 mm
08:59 AM 45.3°F7.4°C 43.7°F6.5°C 94% Calm Calm -- 29.95 in1014.2 mb 0.00 in0.0 mm 0.00 in0.0 mm 0.47 in11.9 mm
09:04 AM 45.5°F7.5°C 43.9°F6.6°C 94% 0.2 mph NNE0.3 kmh NNE 2.5 mph4.0 kmh 29.96 in1014.6 mb 0.00 in0.0 mm 0.00 in0.0 mm 0.47 in11.9 mm
09:09 AM 45.7°F7.6°C 44.1°F6.7°C 94% Calm Calm -- 29.96 in1014.6 mb 0.00 in0.0 mm 0.00 in0.0 mm 0.47 in11.9 mm
09:14 AM 45.7°F7.6°C 43.9°F6.6°C 93% Calm Calm -- 29.95 in1014.2 mb 0.00 in0.0 mm 0.00 in0.0 mm 0.47 in11.9 mm
09:19 AM 45.7°F7.6°C 43.9°F6.6°C 93% Calm Calm -- 29.96 in1014.6 mb 0.00 in0.0 mm 0.00 in0.0 mm 0.47 in11.9 mm
09:24 AM 45.9°F7.7°C 43.9°F6.6°C 93% Calm Calm -- 29.96 in1014.6 mb 0.00 in0.0 mm 0.00 in0.0 mm 0.47 in11.9 mm
09:29 AM 46.0°F7.8°C 44.1°F6.7°C 93% Calm Calm -- 29.95 in1014.2 mb 0.00 in0.0 mm 0.00 in0.0 mm 0.47 in11.9 mm
09:34 AM 46.2°F7.9°C 44.2°F6.8°C 93% Calm Calm -- 29.96 in1014.6 mb 0.00 in0.0 mm 0.00 in0.0 mm 0.47 in11.9 mm
09:39 AM 46.8°F8.2°C 44.8°F7.1°C 93% Calm Calm -- 29.96 in1014.6 mb 0.00 in0.0 mm 0.00 in0.0 mm 0.47 in11.9 mm
09:44 AM 46.9°F8.3°C 45.0°F7.2°C 93% Calm Calm -- 29.96 in1014.6 mb 0.00 in0.0 mm 0.00 in0.0 mm 0.47 in11.9 mm
09:49 AM 47.3°F8.5°C 45.3°F7.4°C 93% Calm Calm -- 29.96 in1014.6 mb 0.00 in0.0 mm 0.00 in0.0 mm 0.47 in11.9 mm
09:54 AM 47.5°F8.6°C 45.3°F7.4°C 92% Calm Calm -- 29.96 in1014.6 mb 0.00 in0.0 mm 0.00 in0.0 mm 0.47 in11.9 mm
09:59 AM 47.8°F8.8°C 45.3°F7.4°C 91% 1.1 mph NE1.8 kmh NE 2.5 mph4.0 kmh 29.96 in1014.6 mb 0.00 in0.0 mm 0.00 in0.0 mm 0.47 in11.9 mm
10:04 AM 48.0°F8.9°C 45.3°F7.4°C 90% 1.3 mph ENE2.1 kmh ENE 2.5 mph4.0 kmh 29.96 in1014.6 mb 0.00 in0.0 mm 0.00 in0.0 mm 0.47 in11.9 mm
10:09 AM 48.2°F9.0°C 45.1°F7.3°C 89% Calm Calm -- 29.96 in1014.6 mb 0.00 in0.0 mm 0.00 in0.0 mm 0.47 in11.9 mm
10:14 AM 48.2°F9.0°C 45.1°F7.3°C 89% 0.2 mph NNE0.3 kmh NNE 2.5 mph4.0 kmh 29.96 in1014.6 mb 0.00 in0.0 mm 0.00 in0.0 mm 0.47 in11.9 mm
10:19 AM 50.9°F10.5°C 47.8°F8.8°C 89% Calm Calm -- 29.96 in1014.6 mb 0.00 in0.0 mm 0.00 in0.0 mm 0.47 in11.9 mm
10:24 AM 51.1°F10.6°C 47.3°F8.5°C 87% 1.8 mph N2.9 kmh N 2.5 mph4.0 kmh 29.96 in1014.6 mb 0.00 in0.0 mm 0.00 in0.0 mm 0.47 in11.9 mm
10:29 AM 51.3°F10.7°C 46.9°F8.3°C 85% 1.1 mph NE1.8 kmh NE 2.5 mph4.0 kmh 29.96 in1014.6 mb 0.00 in0.0 mm 0.00 in0.0 mm 0.47 in11.9 mm
10:34 AM 51.6°F10.9°C 46.6°F8.1°C 83% 3.6 mph NE5.8 kmh NE 4.9 mph7.9 kmh 29.96 in1014.6 mb 0.00 in0.0 mm 0.00 in0.0 mm 0.47 in11.9 mm
10:39 AM 52.0°F11.1°C 46.8°F8.2°C 82% Calm Calm -- 29.97 in1014.9 mb 0.00 in0.0 mm 0.00 in0.0 mm 0.47 in11.9 mm
10:44 AM 52.5°F11.4°C 46.6°F8.1°C 80% Calm Calm -- 29.96 in1014.6 mb 0.00 in0.0 mm 0.00 in0.0 mm 0.47 in11.9 mm
10:49 AM 53.2°F11.8°C 46.9°F8.3°C 79% Calm Calm -- 29.96 in1014.6 mb 0.00 in0.0 mm 0.00 in0.0 mm 0.47 in11.9 mm
10:54 AM 53.8°F12.1°C 46.4°F8.0°C 76% 3.4 mph NW5.5 kmh NW 4.9 mph7.9 kmh 29.96 in1014.6 mb 0.00 in0.0 mm 0.00 in0.0 mm 0.47 in11.9 mm
10:59 AM 54.3°F12.4°C 46.9°F8.3°C 76% 1.1 mph N1.8 kmh N 2.5 mph4.0 kmh 29.96 in1014.6 mb 0.00 in0.0 mm 0.00 in0.0 mm 0.47 in11.9 mm
11:04 AM 55.0°F12.8°C 47.3°F8.5°C 75% Calm Calm -- 29.97 in1014.9 mb 0.00 in0.0 mm 0.00 in0.0 mm 0.47 in11.9 mm
11:09 AM 55.6°F13.1°C 46.8°F8.2°C 72% 4.0 mph N6.4 kmh N 4.9 mph7.9 kmh 29.97 in1014.9 mb 0.00 in0.0 mm 0.00 in0.0 mm 0.47 in11.9 mm
11:14 AM 56.1°F13.4°C 46.6°F8.1°C 70% 0.2 mph E0.3 kmh E 2.5 mph4.0 kmh 29.97 in1014.9 mb 0.00 in0.0 mm 0.00 in0.0 mm 0.47 in11.9 mm
11:19 AM 56.5°F13.6°C 46.8°F8.2°C 70% 0.4 mph NE0.6 kmh NE 2.5 mph4.0 kmh 29.96 in1014.6 mb 0.00 in0.0 mm 0.00 in0.0 mm 0.47 in11.9 mm
11:24 AM 56.8°F13.8°C 46.4°F8.0°C 68% 1.3 mph ENE2.1 kmh ENE 2.5 mph4.0 kmh 29.97 in1014.9 mb 0.00 in0.0 mm 0.00 in0.0 mm 0.47 in11.9 mm
11:29 AM 57.2°F14.0°C 46.0°F7.8°C 66% 1.8 mph N2.9 kmh N 2.5 mph4.0 kmh 29.97 in1014.9 mb 0.00 in0.0 mm 0.00 in0.0 mm 0.47 in11.9 mm
11:34 AM 57.6°F14.2°C 46.4°F8.0°C 66% 1.3 mph N2.1 kmh N 2.5 mph4.0 kmh 29.97 in1014.9 mb 0.00 in0.0 mm 0.00 in0.0 mm 0.47 in11.9 mm
11:39 AM 57.9°F14.4°C 46.6°F8.1°C 66% Calm Calm -- 29.97 in1014.9 mb 0.00 in0.0 mm 0.00 in0.0 mm 0.47 in11.9 mm
11:44 AM 58.3°F14.6°C 45.9°F7.7°C 63% 3.6 mph N5.8 kmh N 4.9 mph7.9 kmh 29.97 in1014.9 mb 0.00 in0.0 mm 0.00 in0.0 mm 0.47 in11.9 mm
11:49 AM 58.5°F14.7°C 47.1°F8.4°C 66% 2.9 mph N4.7 kmh N 4.9 mph7.9 kmh 29.97 in1014.9 mb 0.00 in0.0 mm 0.00 in0.0 mm 0.47 in11.9 mm
11:54 AM 58.6°F14.8°C 46.6°F8.1°C 64% Calm Calm -- 29.97 in1014.9 mb 0.00 in0.0 mm 0.00 in0.0 mm 0.47 in11.9 mm
11:59 AM 59.0°F15.0°C 46.0°F7.8°C 62% 8.9 mph NW14.3 kmh NW 12.3 mph19.8 kmh 29.97 in1014.9 mb 0.00 in0.0 mm 0.00 in0.0 mm 0.47 in11.9 mm
12:04 PM 59.2°F15.1°C 46.6°F8.1°C 63% 1.3 mph NE2.1 kmh NE 2.5 mph4.0 kmh 29.97 in1014.9 mb 0.00 in0.0 mm 0.00 in0.0 mm 0.47 in11.9 mm
12:09 PM 59.2°F15.1°C 46.2°F7.9°C 62% 3.6 mph N5.8 kmh N 4.9 mph7.9 kmh 29.97 in1014.9 mb 0.00 in0.0 mm 0.00 in0.0 mm 0.47 in11.9 mm
12:14 PM 59.4°F15.2°C 46.8°F8.2°C 63% 4.0 mph NW6.4 kmh NW 4.9 mph7.9 kmh 29.96 in1014.6 mb 0.00 in0.0 mm 0.00 in0.0 mm 0.47 in11.9 mm
12:19 PM 59.7°F15.4°C 45.3°F7.4°C 59% 4.0 mph W6.4 kmh W 4.9 mph7.9 kmh 29.96 in1014.6 mb 0.00 in0.0 mm 0.00 in0.0 mm 0.47 in11.9 mm
12:24 PM 59.9°F15.5°C 45.1°F7.3°C 58% 2.5 mph N4.0 kmh N 4.9 mph7.9 kmh 29.96 in1014.6 mb 0.00 in0.0 mm 0.00 in0.0 mm 0.47 in11.9 mm
12:29 PM 60.1°F15.6°C 41.4°F5.2°C 50% 2.0 mph SW3.2 kmh SW 2.5 mph4.0 kmh 29.97 in1014.9 mb 0.00 in0.0 mm 0.00 in0.0 mm 0.47 in11.9 mm
12:34 PM 60.4°F15.8°C 41.7°F5.4°C 50% Calm Calm -- 29.96 in1014.6 mb 0.00 in0.0 mm 0.00 in0.0 mm 0.47 in11.9 mm
12:39 PM 60.8°F16.0°C 41.5°F5.3°C 49% Calm Calm -- 29.96 in1014.6 mb 0.00 in0.0 mm 0.00 in0.0 mm 0.47 in11.9 mm
12:44 PM 61.0°F16.1°C 40.6°F4.8°C 47% 4.0 mph NNE6.4 kmh NNE 4.9 mph7.9 kmh 29.96 in1014.6 mb 0.00 in0.0 mm 0.00 in0.0 mm 0.47 in11.9 mm
12:49 PM 61.2°F16.2°C 39.7°F4.3°C 45% 4.0 mph NW6.4 kmh NW 4.9 mph7.9 kmh 29.96 in1014.6 mb 0.00 in0.0 mm 0.00 in0.0 mm 0.47 in11.9 mm
12:54 PM 61.3°F16.3°C 39.2°F4.0°C 44% 4.3 mph N6.9 kmh N 4.9 mph7.9 kmh 29.95 in1014.2 mb 0.00 in0.0 mm 0.00 in0.0 mm 0.47 in11.9 mm
12:59 PM 61.5°F16.4°C 40.6°F4.8°C 46% 2.5 mph NE4.0 kmh NE 4.9 mph7.9 kmh 29.95 in1014.2 mb 0.00 in0.0 mm 0.00 in0.0 mm 0.47 in11.9 mm
01:04 PM 61.9°F16.6°C 39.2°F4.0°C 43% 2.9 mph NW4.7 kmh NW 4.9 mph7.9 kmh 29.95 in1014.2 mb 0.00 in0.0 mm 0.00 in0.0 mm 0.47 in11.9 mm
01:09 PM 61.9°F16.6°C 41.0°F5.0°C 46% 0.9 mph NE1.4 kmh NE 2.5 mph4.0 kmh 29.95 in1014.2 mb 0.00 in0.0 mm 0.00 in0.0 mm 0.47 in11.9 mm
01:14 PM 62.2°F16.8°C 37.6°F3.1°C 40% 6.7 mph N10.8 kmh N 9.8 mph15.8 kmh 29.94 in1013.9 mb 0.00 in0.0 mm 0.00 in0.0 mm 0.47 in11.9 mm
01:19 PM 62.2°F16.8°C 38.8°F3.8°C 42% 3.4 mph SW5.5 kmh SW 4.9 mph7.9 kmh 29.94 in1013.9 mb 0.00 in0.0 mm 0.00 in0.0 mm 0.47 in11.9 mm
01:24 PM 62.4°F16.9°C 40.3°F4.6°C 44% 2.5 mph NNE4.0 kmh NNE 4.9 mph7.9 kmh 29.93 in1013.5 mb 0.00 in0.0 mm 0.00 in0.0 mm 0.47 in11.9 mm
01:29 PM 62.6°F17.0°C 39.9°F4.4°C 43% 0.4 mph E0.6 kmh E 2.5 mph4.0 kmh 29.94 in1013.9 mb 0.00 in0.0 mm 0.00 in0.0 mm 0.47 in11.9 mm
01:34 PM 63.0°F17.2°C 39.0°F3.9°C 41% 1.8 mph NNE2.9 kmh NNE 4.9 mph7.9 kmh 29.93 in1013.5 mb 0.00 in0.0 mm 0.00 in0.0 mm 0.47 in11.9 mm
01:39 PM 63.3°F17.4°C 36.7°F2.6°C 37% 5.8 mph N9.3 kmh N 7.4 mph11.9 kmh 29.93 in1013.5 mb 0.00 in0.0 mm 0.00 in0.0 mm 0.47 in11.9 mm
01:44 PM 63.3°F17.4°C 37.4°F3.0°C 38% 2.7 mph N4.3 kmh N 4.9 mph7.9 kmh 29.93 in1013.5 mb 0.00 in0.0 mm 0.00 in0.0 mm 0.47 in11.9 mm
01:49 PM 63.5°F17.5°C 37.4°F3.0°C 38% 0.9 mph NE1.4 kmh NE 2.5 mph4.0 kmh 29.93 in1013.5 mb 0.00 in0.0 mm 0.00 in0.0 mm 0.47 in11.9 mm
01:54 PM 63.7°F17.6°C 36.3°F2.4°C 36% 0.4 mph ENE0.6 kmh ENE 2.5 mph4.0 kmh 29.92 in1013.2 mb 0.00 in0.0 mm 0.00 in0.0 mm 0.47 in11.9 mm
01:59 PM 63.9°F17.7°C 37.0°F2.8°C 37% 1.8 mph NE2.9 kmh NE 2.5 mph4.0 kmh 29.92 in1013.2 mb 0.00 in0.0 mm 0.00 in0.0 mm 0.47 in11.9 mm
02:04 PM 63.9°F17.7°C 35.8°F2.1°C 35% 1.3 mph NE2.1 kmh NE 2.5 mph4.0 kmh 29.92 in1013.2 mb 0.00 in0.0 mm 0.00 in0.0 mm 0.47 in11.9 mm
02:09 PM 64.0°F17.8°C 35.1°F1.7°C 34% 2.9 mph N4.7 kmh N 4.9 mph7.9 kmh 29.91 in1012.9 mb 0.00 in0.0 mm 0.00 in0.0 mm 0.47 in11.9 mm
02:14 PM 64.2°F17.9°C 31.3°F-0.4°C 29% 3.4 mph E5.5 kmh E 7.4 mph11.9 kmh 29.91 in1012.9 mb 0.00 in0.0 mm 0.00 in0.0 mm 0.47 in11.9 mm
02:19 PM 64.4°F18.0°C 29.7°F-1.3°C 27% 2.9 mph NNE4.7 kmh NNE 4.9 mph7.9 kmh 29.91 in1012.9 mb 0.00 in0.0 mm 0.00 in0.0 mm 0.47 in11.9 mm
02:24 PM 64.4°F18.0°C 30.6°F-0.8°C 28% 1.1 mph E1.8 kmh E 4.9 mph7.9 kmh 29.90 in1012.5 mb 0.00 in0.0 mm 0.00 in0.0 mm 0.47 in11.9 mm
02:29 PM 64.4°F18.0°C 31.5°F-0.3°C 29% 1.3 mph ENE2.1 kmh ENE 2.5 mph4.0 kmh 29.90 in1012.5 mb 0.00 in0.0 mm 0.00 in0.0 mm 0.47 in11.9 mm
02:34 PM 64.4°F18.0°C 29.7°F-1.3°C 27% Calm Calm -- 29.90 in1012.5 mb 0.00 in0.0 mm 0.00 in0.0 mm 0.47 in11.9 mm
02:39 PM 64.6°F18.1°C 30.7°F-0.7°C 28% 6.5 mph NNW10.5 kmh NNW 7.4 mph11.9 kmh 29.89 in1012.2 mb 0.00 in0.0 mm 0.00 in0.0 mm 0.47 in11.9 mm
02:44 PM 64.8°F18.2°C 34.3°F1.3°C 32% Calm Calm -- 29.89 in1012.2 mb 0.00 in0.0 mm 0.00 in0.0 mm 0.47 in11.9 mm
02:49 PM 64.9°F18.3°C 31.1°F-0.5°C 28% 5.1 mph NW8.2 kmh NW 7.4 mph11.9 kmh 29.88 in1011.9 mb 0.00 in0.0 mm 0.00 in0.0 mm 0.47 in11.9 mm
02:54 PM 65.3°F18.5°C 31.5°F-0.3°C 28% 5.1 mph NE8.2 kmh NE 7.4 mph11.9 kmh 29.88 in1011.9 mb 0.00 in0.0 mm 0.00 in0.0 mm 0.47 in11.9 mm
02:59 PM 65.5°F18.6°C 30.7°F-0.7°C 27% 4.3 mph NW6.9 kmh NW 4.9 mph7.9 kmh 29.88 in1011.9 mb 0.00 in0.0 mm 0.00 in0.0 mm 0.47 in11.9 mm
03:04 PM 65.5°F18.6°C 34.2°F1.2°C 31% 1.8 mph W2.9 kmh W 2.5 mph4.0 kmh 29.88 in1011.9 mb 0.00 in0.0 mm 0.00 in0.0 mm 0.47 in11.9 mm
03:09 PM 65.7°F18.7°C 33.4°F0.8°C 30% 1.1 mph E1.8 kmh E 2.5 mph4.0 kmh 29.88 in1011.9 mb 0.00 in0.0 mm 0.00 in0.0 mm 0.47 in11.9 mm
03:14 PM 65.7°F18.7°C 30.7°F-0.7°C 27% 4.5 mph WNW7.2 kmh WNW 4.9 mph7.9 kmh 29.87 in1011.5 mb 0.00 in0.0 mm 0.00 in0.0 mm 0.47 in11.9 mm
03:19 PM 65.7°F18.7°C 29.8°F-1.2°C 26% Calm Calm -- 29.87 in1011.5 mb 0.00 in0.0 mm 0.00 in0.0 mm 0.47 in11.9 mm
03:24 PM 65.7°F18.7°C 30.7°F-0.7°C 27% 3.6 mph NNW5.8 kmh NNW 4.9 mph7.9 kmh 29.87 in1011.5 mb 0.00 in0.0 mm 0.00 in0.0 mm 0.47 in11.9 mm
03:29 PM 65.8°F18.8°C 30.9°F-0.6°C 27% 0.4 mph ESE0.6 kmh ESE 2.5 mph4.0 kmh 29.87 in1011.5 mb 0.00 in0.0 mm 0.00 in0.0 mm 0.47 in11.9 mm
03:34 PM 66.0°F18.9°C 27.1°F-2.7°C 23% 4.0 mph N6.4 kmh N 4.9 mph7.9 kmh 29.86 in1011.2 mb 0.00 in0.0 mm 0.00 in0.0 mm 0.47 in11.9 mm
03:39 PM 66.0°F18.9°C 26.1°F-3.3°C 22% 4.5 mph NNE7.2 kmh NNE 7.4 mph11.9 kmh 29.86 in1011.2 mb 0.00 in0.0 mm 0.00 in0.0 mm 0.47 in11.9 mm
03:44 PM 66.0°F18.9°C 30.2°F-1.0°C 26% 6.7 mph N10.8 kmh N 7.4 mph11.9 kmh 29.86 in1011.2 mb 0.00 in0.0 mm 0.00 in0.0 mm 0.47 in11.9 mm
03:49 PM 66.2°F19.0°C 31.3°F-0.4°C 27% 1.8 mph W2.9 kmh W 2.5 mph4.0 kmh 29.86 in1011.2 mb 0.00 in0.0 mm 0.00 in0.0 mm 0.47 in11.9 mm
03:54 PM 66.4°F19.1°C 29.5°F-1.4°C 25% 0.4 mph NE0.6 kmh NE 2.5 mph4.0 kmh 29.86 in1011.2 mb 0.00 in0.0 mm 0.00 in0.0 mm 0.47 in11.9 mm
03:59 PM 66.4°F19.1°C 28.6°F-1.9°C 24% Calm Calm -- 29.86 in1011.2 mb 0.00 in0.0 mm 0.00 in0.0 mm 0.47 in11.9 mm
04:04 PM 66.6°F19.2°C 29.7°F-1.3°C 25% 1.1 mph ENE1.8 kmh ENE 2.5 mph4.0 kmh 29.86 in1011.2 mb 0.00 in0.0 mm 0.00 in0.0 mm 0.47 in11.9 mm
04:09 PM 66.6°F19.2°C 29.7°F-1.3°C 25% 2.5 mph ENE4.0 kmh ENE 2.5 mph4.0 kmh 29.85 in1010.8 mb 0.00 in0.0 mm 0.00 in0.0 mm 0.47 in11.9 mm
04:14 PM 66.7°F19.3°C 27.9°F-2.3°C 23% 7.2 mph NNE11.6 kmh NNE 7.4 mph11.9 kmh 29.85 in1010.8 mb 0.00 in0.0 mm 0.00 in0.0 mm 0.47 in11.9 mm
04:19 PM 66.7°F19.3°C 29.8°F-1.2°C 25% 1.1 mph ESE1.8 kmh ESE 2.5 mph4.0 kmh 29.85 in1010.8 mb 0.00 in0.0 mm 0.00 in0.0 mm 0.47 in11.9 mm
04:24 PM 66.7°F19.3°C 26.8°F-2.9°C 22% 2.7 mph W4.3 kmh W 4.9 mph7.9 kmh 29.85 in1010.8 mb 0.00 in0.0 mm 0.00 in0.0 mm 0.47 in11.9 mm
04:29 PM 67.1°F19.5°C 29.1°F-1.6°C 24% 1.3 mph SE2.1 kmh SE 2.5 mph4.0 kmh 29.85 in1010.8 mb 0.00 in0.0 mm 0.00 in0.0 mm 0.47 in11.9 mm
04:34 PM 67.5°F19.7°C 26.2°F-3.2°C 21% 1.1 mph NE1.8 kmh NE 2.5 mph4.0 kmh 29.85 in1010.8 mb 0.00 in0.0 mm 0.00 in0.0 mm 0.47 in11.9 mm
04:39 PM 67.6°F19.8°C 26.4°F-3.1°C 21% 3.4 mph NNE5.5 kmh NNE 7.4 mph11.9 kmh 29.84 in1010.5 mb 0.00 in0.0 mm 0.00 in0.0 mm 0.47 in11.9 mm
04:44 PM 67.8°F19.9°C 29.8°F-1.2°C 24% 0.2 mph E0.3 kmh E 2.5 mph4.0 kmh 29.84 in1010.5 mb 0.00 in0.0 mm 0.00 in0.0 mm 0.47 in11.9 mm
04:49 PM 67.8°F19.9°C 27.7°F-2.4°C 22% 2.0 mph N3.2 kmh N 4.9 mph7.9 kmh 29.84 in1010.5 mb 0.00 in0.0 mm 0.00 in0.0 mm 0.47 in11.9 mm
04:54 PM 67.6°F19.8°C 25.2°F-3.8°C 20% 2.7 mph N4.3 kmh N 4.9 mph7.9 kmh 29.84 in1010.5 mb 0.00 in0.0 mm 0.00 in0.0 mm 0.47 in11.9 mm
04:59 PM 67.5°F19.7°C 26.2°F-3.2°C 21% 0.9 mph W1.4 kmh W 2.5 mph4.0 kmh 29.84 in1010.5 mb 0.00 in0.0 mm 0.00 in0.0 mm 0.47 in11.9 mm
05:04 PM 66.9°F19.4°C 24.6°F-4.1°C 20% 1.8 mph N2.9 kmh N 2.5 mph4.0 kmh 29.84 in1010.5 mb 0.00 in0.0 mm 0.00 in0.0 mm 0.47 in11.9 mm
05:09 PM 66.9°F19.4°C 25.7°F-3.5°C 21% Calm Calm -- 29.84 in1010.5 mb 0.00 in0.0 mm 0.00 in0.0 mm 0.47 in11.9 mm
05:14 PM 67.1°F19.5°C 23.5°F-4.7°C 19% Calm Calm -- 29.84 in1010.5 mb 0.00 in0.0 mm 0.00 in0.0 mm 0.47 in11.9 mm
05:19 PM 67.5°F19.7°C 28.4°F-2.0°C 23% 1.8 mph SSE2.9 kmh SSE 2.5 mph4.0 kmh 29.84 in1010.5 mb 0.00 in0.0 mm 0.00 in0.0 mm 0.47 in11.9 mm
05:24 PM 67.8°F19.9°C 25.3°F-3.7°C 20% 0.2 mph S0.3 kmh S 2.5 mph4.0 kmh 29.83 in1010.2 mb 0.00 in0.0 mm 0.00 in0.0 mm 0.47 in11.9 mm
05:29 PM 68.2°F20.1°C 23.2°F-4.9°C 18% 1.1 mph NE1.8 kmh NE 2.5 mph4.0 kmh 29.83 in1010.2 mb 0.00 in0.0 mm 0.00 in0.0 mm 0.47 in11.9 mm
05:34 PM 68.4°F20.2°C 25.7°F-3.5°C 20% Calm Calm -- 29.83 in1010.2 mb 0.00 in0.0 mm 0.00 in0.0 mm 0.47 in11.9 mm
05:39 PM 68.5°F20.3°C 25.9°F-3.4°C 20% 0.2 mph NE0.3 kmh NE 2.5 mph4.0 kmh 29.82 in1009.8 mb 0.00 in0.0 mm 0.00 in0.0 mm 0.47 in11.9 mm
05:44 PM 68.5°F20.3°C 24.6°F-4.1°C 19% Calm Calm -- 29.83 in1010.2 mb 0.00 in0.0 mm 0.00 in0.0 mm 0.47 in11.9 mm
05:49 PM 68.4°F20.2°C 27.0°F-2.8°C 21% Calm Calm -- 29.82 in1009.8 mb 0.00 in0.0 mm 0.00 in0.0 mm 0.47 in11.9 mm
05:54 PM 68.4°F20.2°C 23.2°F-4.9°C 18% Calm Calm -- 29.83 in1010.2 mb 0.00 in0.0 mm 0.00 in0.0 mm 0.47 in11.9 mm
05:59 PM 68.2°F20.1°C 26.8°F-2.9°C 21% Calm Calm -- 29.82 in1009.8 mb 0.00 in0.0 mm 0.00 in0.0 mm 0.47 in11.9 mm
06:04 PM 68.2°F20.1°C 23.2°F-4.9°C 18% 1.1 mph NE1.8 kmh NE 2.5 mph4.0 kmh 29.82 in1009.8 mb 0.00 in0.0 mm 0.00 in0.0 mm 0.47 in11.9 mm
06:09 PM 68.0°F20.0°C 26.6°F-3.0°C 21% Calm Calm -- 29.82 in1009.8 mb 0.00 in0.0 mm 0.00 in0.0 mm 0.47 in11.9 mm
06:14 PM 67.8°F19.9°C 25.3°F-3.7°C 20% 0.4 mph NE0.6 kmh NE 2.5 mph4.0 kmh 29.82 in1009.8 mb 0.00 in0.0 mm 0.00 in0.0 mm 0.47 in11.9 mm
06:19 PM 67.6°F19.8°C 26.4°F-3.1°C 21% 0.2 mph E0.3 kmh E 2.5 mph4.0 kmh 29.82 in1009.8 mb 0.00 in0.0 mm 0.00 in0.0 mm 0.47 in11.9 mm
06:24 PM 67.5°F19.7°C 28.4°F-2.0°C 23% 0.4 mph W0.6 kmh W 2.5 mph4.0 kmh 29.82 in1009.8 mb 0.00 in0.0 mm 0.00 in0.0 mm 0.47 in11.9 mm
06:29 PM 67.1°F19.5°C 27.0°F-2.8°C 22% 1.1 mph NE1.8 kmh NE 2.5 mph4.0 kmh 29.82 in1009.8 mb 0.00 in0.0 mm 0.00 in0.0 mm 0.47 in11.9 mm
06:34 PM 66.7°F19.3°C 28.8°F-1.8°C 24% Calm Calm -- 29.81 in1009.5 mb 0.00 in0.0 mm 0.00 in0.0 mm 0.47 in11.9 mm
06:39 PM 66.2°F19.0°C 32.2°F0.1°C 28% Calm Calm -- 29.82 in1009.8 mb 0.00 in0.0 mm 0.00 in0.0 mm 0.47 in11.9 mm
06:44 PM 65.3°F18.5°C 33.1°F0.6°C 30% Calm Calm -- 29.82 in1009.8 mb 0.00 in0.0 mm 0.00 in0.0 mm 0.47 in11.9 mm
06:49 PM 64.4°F18.0°C 34.7°F1.5°C 33% Calm Calm -- 29.81 in1009.5 mb 0.00 in0.0 mm 0.00 in0.0 mm 0.47 in11.9 mm
06:54 PM 63.3°F17.4°C 34.5°F1.4°C 34% Calm Calm -- 29.81 in1009.5 mb 0.00 in0.0 mm 0.00 in0.0 mm 0.47 in11.9 mm
06:59 PM 62.1°F16.7°C 34.9°F1.6°C 36% Calm Calm -- 29.81 in1009.5 mb 0.00 in0.0 mm 0.00 in0.0 mm 0.47 in11.9 mm
07:04 PM 60.8°F16.0°C 34.3°F1.3°C 37% Calm Calm -- 29.81 in1009.5 mb 0.00 in0.0 mm 0.00 in0.0 mm 0.47 in11.9 mm
07:09 PM 59.4°F15.2°C 35.1°F1.7°C 40% Calm Calm -- 29.81 in1009.5 mb 0.00 in0.0 mm 0.00 in0.0 mm 0.47 in11.9 mm
07:14 PM 58.1°F14.5°C 35.2°F1.8°C 42% Calm Calm -- 29.81 in1009.5 mb 0.00 in0.0 mm 0.00 in0.0 mm 0.47 in11.9 mm
07:19 PM 57.0°F13.9°C 35.4°F1.9°C 44% Calm Calm -- 29.80 in1009.1 mb 0.00 in0.0 mm 0.00 in0.0 mm 0.47 in11.9 mm
07:24 PM 56.1°F13.4°C 36.7°F2.6°C 48% Calm Calm -- 29.81 in1009.5 mb 0.00 in0.0 mm 0.00 in0.0 mm 0.47 in11.9 mm
07:29 PM 55.4°F13.0°C 38.1°F3.4°C 52% Calm Calm -- 29.80 in1009.1 mb 0.00 in0.0 mm 0.00 in0.0 mm 0.47 in11.9 mm
07:34 PM 54.7°F12.6°C 38.8°F3.8°C 55% Calm Calm -- 29.80 in1009.1 mb 0.00 in0.0 mm 0.00 in0.0 mm 0.47 in11.9 mm
07:39 PM 53.8°F12.1°C 37.9°F3.3°C 55% Calm Calm -- 29.80 in1009.1 mb 0.00 in0.0 mm 0.00 in0.0 mm 0.47 in11.9 mm
07:44 PM 52.9°F11.6°C 38.1°F3.4°C 57% Calm Calm -- 29.80 in1009.1 mb 0.00 in0.0 mm 0.00 in0.0 mm 0.47 in11.9 mm
07:49 PM 52.2°F11.2°C 37.9°F3.3°C 58% Calm Calm -- 29.80 in1009.1 mb 0.00 in0.0 mm 0.00 in0.0 mm 0.47 in11.9 mm
07:54 PM 51.4°F10.8°C 38.1°F3.4°C 60% Calm Calm -- 29.80 in1009.1 mb 0.00 in0.0 mm 0.00 in0.0 mm 0.47 in11.9 mm
07:59 PM 50.7°F10.4°C 38.1°F3.4°C 62% Calm Calm -- 29.80 in1009.1 mb 0.00 in0.0 mm 0.00 in0.0 mm 0.47 in11.9 mm
08:04 PM 49.8°F9.9°C 37.8°F3.2°C 63% Calm Calm -- 29.80 in1009.1 mb 0.00 in0.0 mm 0.00 in0.0 mm 0.47 in11.9 mm
08:09 PM 48.7°F9.3°C 37.6°F3.1°C 65% Calm Calm -- 29.80 in1009.1 mb 0.00 in0.0 mm 0.00 in0.0 mm 0.47 in11.9 mm
08:14 PM 48.2°F9.0°C 37.0°F2.8°C 65% Calm Calm -- 29.80 in1009.1 mb 0.00 in0.0 mm 0.00 in0.0 mm 0.47 in11.9 mm
08:19 PM 47.5°F8.6°C 36.7°F2.6°C 66% Calm Calm -- 29.80 in1009.1 mb 0.00 in0.0 mm 0.00 in0.0 mm 0.47 in11.9 mm
08:24 PM 47.1°F8.4°C 36.3°F2.4°C 66% Calm Calm -- 29.79 in1008.8 mb 0.00 in0.0 mm 0.00 in0.0 mm 0.47 in11.9 mm
08:29 PM 46.8°F8.2°C 36.3°F2.4°C 67% Calm Calm -- 29.80 in1009.1 mb 0.00 in0.0 mm 0.00 in0.0 mm 0.47 in11.9 mm
08:34 PM 46.2°F7.9°C 36.3°F2.4°C 68% Calm Calm -- 29.79 in1008.8 mb 0.00 in0.0 mm 0.00 in0.0 mm 0.47 in11.9 mm
08:39 PM 45.9°F7.7°C 36.3°F2.4°C 69% Calm Calm -- 29.80 in1009.1 mb 0.00 in0.0 mm 0.00 in0.0 mm 0.47 in11.9 mm
08:44 PM 45.3°F7.4°C 36.1°F2.3°C 70% Calm Calm -- 29.79 in1008.8 mb 0.00 in0.0 mm 0.00 in0.0 mm 0.47 in11.9 mm
08:49 PM 45.0°F7.2°C 36.1°F2.3°C 71% Calm Calm -- 29.80 in1009.1 mb 0.00 in0.0 mm 0.00 in0.0 mm 0.47 in11.9 mm
08:54 PM 44.6°F7.0°C 35.8°F2.1°C 71% Calm Calm -- 29.80 in1009.1 mb 0.00 in0.0 mm 0.00 in0.0 mm 0.47 in11.9 mm
08:59 PM 44.2°F6.8°C 35.8°F2.1°C 72% Calm Calm -- 29.80 in1009.1 mb 0.00 in0.0 mm 0.00 in0.0 mm 0.47 in11.9 mm
09:04 PM 43.7°F6.5°C 35.6°F2.0°C 73% Calm Calm -- 29.80 in1009.1 mb 0.00 in0.0 mm 0.00 in0.0 mm 0.47 in11.9 mm
09:09 PM 43.0°F6.1°C 35.2°F1.8°C 74% Calm Calm -- 29.80 in1009.1 mb 0.00 in0.0 mm 0.00 in0.0 mm 0.47 in11.9 mm
09:14 PM 42.6°F5.9°C 34.9°F1.6°C 74% Calm Calm -- 29.80 in1009.1 mb 0.00 in0.0 mm 0.00 in0.0 mm 0.47 in11.9 mm
09:19 PM 42.4°F5.8°C 34.3°F1.3°C 73% Calm Calm -- 29.80 in1009.1 mb 0.00 in0.0 mm 0.00 in0.0 mm 0.47 in11.9 mm
09:24 PM 42.3°F5.7°C 34.2°F1.2°C 73% Calm Calm -- 29.80 in1009.1 mb 0.00 in0.0 mm 0.00 in0.0 mm 0.47 in11.9 mm
09:29 PM 42.1°F5.6°C 34.0°F1.1°C 73% Calm Calm -- 29.80 in1009.1 mb 0.00 in0.0 mm 0.00 in0.0 mm 0.47 in11.9 mm
09:34 PM 41.9°F5.5°C 34.0°F1.1°C 73% Calm Calm -- 29.79 in1008.8 mb 0.00 in0.0 mm 0.00 in0.0 mm 0.47 in11.9 mm
09:39 PM 41.9°F5.5°C 34.0°F1.1°C 73% Calm Calm -- 29.79 in1008.8 mb 0.00 in0.0 mm 0.00 in0.0 mm 0.47 in11.9 mm
09:44 PM 41.9°F5.5°C 33.6°F0.9°C 72% Calm Calm -- 29.78 in1008.5 mb 0.00 in0.0 mm 0.00 in0.0 mm 0.47 in11.9 mm
09:49 PM 41.9°F5.5°C 34.0°F1.1°C 73% Calm Calm -- 29.78 in1008.5 mb 0.00 in0.0 mm 0.00 in0.0 mm 0.47 in11.9 mm
09:54 PM 41.7°F5.4°C 33.8°F1.0°C 73% Calm Calm -- 29.78 in1008.5 mb 0.00 in0.0 mm 0.00 in0.0 mm 0.47 in11.9 mm
09:59 PM 41.5°F5.3°C 33.8°F1.0°C 74% Calm Calm -- 29.78 in1008.5 mb 0.00 in0.0 mm 0.00 in0.0 mm 0.47 in11.9 mm
10:04 PM 41.5°F5.3°C 33.8°F1.0°C 74% Calm Calm -- 29.78 in1008.5 mb 0.00 in0.0 mm 0.00 in0.0 mm 0.47 in11.9 mm
10:09 PM 41.5°F5.3°C 33.8°F1.0°C 74% Calm Calm -- 29.78 in1008.5 mb 0.00 in0.0 mm 0.00 in0.0 mm 0.47 in11.9 mm
10:14 PM 41.5°F5.3°C 33.8°F1.0°C 74% Calm Calm -- 29.78 in1008.5 mb 0.00 in0.0 mm 0.00 in0.0 mm 0.47 in11.9 mm
10:19 PM 41.4°F5.2°C 33.8°F1.0°C 74% Calm Calm -- 29.78 in1008.5 mb 0.00 in0.0 mm 0.00 in0.0 mm 0.47 in11.9 mm
10:24 PM 41.2°F5.1°C 33.8°F1.0°C 75% Calm Calm -- 29.77 in1008.1 mb 0.00 in0.0 mm 0.00 in0.0 mm 0.47 in11.9 mm
10:29 PM 41.0°F5.0°C 33.6°F0.9°C 75% Calm Calm -- 29.77 in1008.1 mb 0.00 in0.0 mm 0.00 in0.0 mm 0.47 in11.9 mm
10:34 PM 40.8°F4.9°C 33.8°F1.0°C 76% Calm Calm -- 29.77 in1008.1 mb 0.00 in0.0 mm 0.00 in0.0 mm 0.47 in11.9 mm
10:39 PM 40.6°F4.8°C 33.6°F0.9°C 76% Calm Calm -- 29.77 in1008.1 mb 0.00 in0.0 mm 0.00 in0.0 mm 0.47 in11.9 mm
10:44 PM 40.5°F4.7°C 33.8°F1.0°C 77% Calm Calm -- 29.77 in1008.1 mb 0.00 in0.0 mm 0.00 in0.0 mm 0.47 in11.9 mm
10:49 PM 40.5°F4.7°C 34.2°F1.2°C 78% Calm Calm -- 29.76 in1007.8 mb 0.00 in0.0 mm 0.00 in0.0 mm 0.47 in11.9 mm
10:54 PM 40.3°F4.6°C 34.0°F1.1°C 78% Calm Calm -- 29.76 in1007.8 mb 0.00 in0.0 mm 0.00 in0.0 mm 0.47 in11.9 mm
10:59 PM 40.1°F4.5°C 33.8°F1.0°C 78% Calm Calm -- 29.77 in1008.1 mb 0.00 in0.0 mm 0.00 in0.0 mm 0.47 in11.9 mm
11:03 PM 39.9°F4.4°C 34.0°F1.1°C 79% Calm Calm -- 29.76 in1007.8 mb 0.00 in0.0 mm 0.00 in0.0 mm 0.47 in11.9 mm
11:09 PM 39.7°F4.3°C 34.2°F1.2°C 80% Calm Calm -- 29.76 in1007.8 mb 0.00 in0.0 mm 0.00 in0.0 mm 0.47 in11.9 mm
11:14 PM 39.7°F4.3°C 34.2°F1.2°C 80% Calm Calm -- 29.76 in1007.8 mb 0.00 in0.0 mm 0.00 in0.0 mm 0.47 in11.9 mm
11:19 PM 39.6°F4.2°C 34.2°F1.2°C 81% Calm Calm -- 29.76 in1007.8 mb 0.00 in0.0 mm 0.00 in0.0 mm 0.47 in11.9 mm
11:24 PM 39.6°F4.2°C 34.2°F1.2°C 81% Calm Calm -- 29.76 in1007.8 mb 0.00 in0.0 mm 0.00 in0.0 mm 0.47 in11.9 mm
11:29 PM 39.6°F4.2°C 34.2°F1.2°C 81% Calm Calm -- 29.76 in1007.8 mb 0.00 in0.0 mm 0.00 in0.0 mm 0.47 in11.9 mm
11:34 PM 39.4°F4.1°C 34.0°F1.1°C 81% Calm Calm -- 29.76 in1007.8 mb 0.00 in0.0 mm 0.00 in0.0 mm 0.47 in11.9 mm
11:39 PM 39.4°F4.1°C 34.0°F1.1°C 81% Calm Calm -- 29.75 in1007.5 mb 0.00 in0.0 mm 0.00 in0.0 mm 0.47 in11.9 mm
11:44 PM 39.4°F4.1°C 34.0°F1.1°C 81% Calm Calm -- 29.76 in1007.8 mb 0.00 in0.0 mm 0.00 in0.0 mm 0.47 in11.9 mm
11:49 PM 39.4°F4.1°C 34.3°F1.3°C 82% Calm Calm -- 29.75 in1007.5 mb 0.00 in0.0 mm 0.00 in0.0 mm 0.47 in11.9 mm
11:54 PM 39.2°F4.0°C 34.5°F1.4°C 83% Calm Calm -- 29.75 in1007.5 mb 0.00 in0.0 mm 0.00 in0.0 mm 0.47 in11.9 mm
11:59 PM 39.4°F4.1°C 35.6°F2.0°C 86% Calm Calm -- 29.75 in1007.5 mb 0.00 in0.0 mm 0.00 in0.0 mm 0.47 in11.9 mm